createdAt,value
2019-02-18T00:00:45.212Z,58.23
2019-02-18T00:03:14.094Z,58.20
2019-02-18T00:05:42.745Z,57.54
2019-02-18T00:08:11.471Z,57.54
2019-02-18T00:10:40.257Z,58.06
2019-02-18T00:13:08.882Z,57.91
2019-02-18T00:15:37.568Z,57.99
2019-02-18T00:18:06.207Z,58.09
2019-02-18T00:20:34.846Z,58.19
2019-02-18T00:23:03.487Z,58.45
2019-02-18T00:25:32.131Z,58.71
2019-02-18T00:28:00.767Z,59.10
2019-02-18T00:30:29.591Z,59.49
2019-02-18T00:32:58.229Z,59.64
2019-02-18T00:35:26.849Z,59.95
2019-02-18T00:37:55.393Z,60.26
2019-02-18T00:40:24.130Z,60.59
2019-02-18T00:42:52.736Z,60.83
2019-02-18T00:45:21.596Z,61.17
2019-02-18T00:47:50.240Z,61.49
2019-02-18T00:50:18.861Z,61.74
2019-02-18T00:52:47.508Z,62.17
2019-02-18T00:55:16.193Z,62.54
2019-02-18T00:57:44.984Z,62.88
2019-02-18T01:00:16.326Z,63.26
2019-02-18T01:02:45.080Z,63.46
2019-02-18T01:05:14.003Z,63.75
2019-02-18T01:07:42.945Z,64.06
2019-02-18T01:10:12.753Z,64.28
2019-02-18T01:12:41.370Z,64.46
2019-02-18T01:15:12.429Z,64.84
2019-02-18T01:17:41.091Z,65.16
2019-02-18T01:20:12.265Z,65.48
2019-02-18T01:22:40.914Z,65.79
2019-02-18T01:25:11.832Z,65.91
2019-02-18T01:27:40.486Z,66.11
2019-02-18T01:30:14.687Z,66.24
2019-02-18T01:32:43.388Z,66.62
2019-02-18T01:35:12.132Z,66.84
2019-02-18T01:37:45.630Z,67.02
2019-02-18T01:40:13.167Z,67.23
2019-02-18T01:42:41.901Z,67.52
2019-02-18T01:45:14.815Z,67.84
2019-02-18T01:47:43.495Z,67.96
2019-02-18T01:50:13.982Z,68.11
2019-02-18T01:52:42.593Z,68.18
2019-02-18T01:55:12.645Z,68.38
2019-02-18T01:57:41.466Z,68.33
2019-02-18T02:00:13.087Z,68.36
2019-02-18T02:02:41.713Z,68.55
2019-02-18T02:05:12.357Z,68.71
2019-02-18T02:07:41.060Z,68.96
2019-02-18T02:10:12.040Z,69.06
2019-02-18T02:12:40.767Z,69.28
2019-02-18T02:15:12.332Z,69.59
2019-02-18T02:17:40.954Z,69.75
2019-02-18T02:20:09.707Z,69.78
2019-02-18T02:22:38.325Z,69.95
2019-02-18T02:25:07.284Z,70.23
2019-02-18T02:27:35.936Z,70.39
2019-02-18T02:30:06.772Z,70.67
2019-02-18T02:32:35.320Z,70.63
2019-02-18T02:35:04.059Z,70.69
2019-02-18T02:37:32.667Z,70.87
2019-02-18T02:40:01.380Z,71.05
2019-02-18T02:42:29.993Z,71.22
2019-02-18T02:44:58.679Z,71.67
2019-02-18T02:47:27.334Z,71.69
2019-02-18T02:49:55.970Z,71.70
2019-02-18T02:52:24.577Z,71.65
2019-02-18T02:54:53.355Z,71.75
2019-02-18T02:57:21.997Z,71.84
2019-02-18T02:59:50.716Z,71.86
2019-02-18T03:02:19.329Z,71.98
2019-02-18T03:04:48.247Z,71.89
2019-02-18T03:07:16.880Z,71.96
2019-02-18T03:09:45.505Z,71.93
2019-02-18T03:12:14.192Z,72.27
2019-02-18T03:14:42.906Z,72.36
2019-02-18T03:17:11.525Z,72.35
2019-02-18T03:19:40.388Z,72.27
2019-02-18T03:22:08.998Z,72.54
2019-02-18T03:24:37.618Z,72.65
2019-02-18T03:27:06.174Z,72.70
2019-02-18T03:29:50.179Z,72.88
2019-02-18T03:32:18.790Z,73.07
2019-02-18T03:34:47.419Z,73.00
2019-02-18T03:37:16.136Z,73.21
2019-02-18T03:39:44.789Z,73.31
2019-02-18T03:42:13.986Z,73.39
2019-02-18T03:44:42.874Z,73.59
2019-02-18T03:47:11.511Z,73.66
2019-02-18T03:49:40.110Z,73.82
2019-02-18T03:52:08.930Z,73.90
2019-02-18T03:54:37.569Z,73.90
2019-02-18T03:57:06.177Z,73.90
2019-02-18T03:59:34.840Z,74.17
2019-02-18T04:02:03.447Z,74.24
2019-02-18T04:04:32.086Z,74.38
2019-02-18T04:07:00.678Z,74.52
2019-02-18T04:09:29.291Z,74.50
2019-02-18T04:11:57.833Z,74.86
2019-02-18T04:14:26.464Z,75.00
2019-02-18T04:16:55.111Z,75.10
2019-02-18T04:19:23.759Z,75.15
2019-02-18T04:21:52.555Z,75.13
2019-02-18T04:24:21.031Z,75.05
2019-02-18T04:26:49.876Z,75.16
2019-02-18T04:29:18.494Z,75.36
2019-02-18T04:31:47.082Z,75.48
2019-02-18T04:34:15.707Z,75.54
2019-02-18T04:36:44.355Z,75.45
2019-02-18T04:39:12.974Z,75.45
2019-02-18T04:41:41.730Z,75.54
2019-02-18T04:44:10.339Z,75.49
2019-02-18T04:46:39.021Z,75.71
2019-02-18T04:49:07.645Z,75.88
2019-02-18T04:51:36.294Z,75.83
2019-02-18T04:54:04.949Z,76.10
2019-02-18T04:56:33.972Z,75.94
2019-02-18T04:59:02.590Z,76.05
2019-02-18T05:01:31.212Z,76.09
2019-02-18T05:03:59.857Z,76.26
2019-02-18T05:06:28.710Z,76.50
2019-02-18T05:09:05.062Z,76.54
2019-02-18T05:11:27.557Z,76.64
2019-02-18T05:13:56.259Z,76.64
2019-02-18T05:16:24.899Z,76.79
2019-02-18T05:18:53.503Z,77.00
2019-02-18T05:21:22.309Z,77.31
2019-02-18T05:23:50.916Z,77.39
2019-02-18T05:26:19.574Z,77.25
2019-02-18T05:28:48.257Z,77.33
2019-02-18T05:31:17.000Z,77.18
2019-02-18T05:33:45.590Z,77.10
2019-02-18T05:36:14.205Z,77.25
2019-02-18T05:38:42.935Z,77.33
2019-02-18T05:41:11.541Z,77.36
2019-02-18T05:43:40.156Z,77.53
2019-02-18T05:46:08.878Z,77.35
2019-02-18T05:48:37.500Z,77.56
2019-02-18T05:51:06.151Z,77.64
2019-02-18T05:53:34.801Z,77.59
2019-02-18T05:56:03.422Z,77.73
2019-02-18T05:58:32.037Z,77.81
2019-02-18T06:01:00.700Z,77.91
2019-02-18T06:03:29.231Z,77.90
2019-02-18T06:05:58.033Z,77.78
2019-02-18T06:08:26.749Z,77.95
2019-02-18T06:10:55.352Z,77.73
2019-02-18T06:13:23.996Z,77.75
2019-02-18T06:15:52.611Z,77.79
2019-02-18T06:18:21.250Z,77.84
2019-02-18T06:20:49.941Z,77.83
2019-02-18T06:23:18.554Z,77.87
2019-02-18T06:25:47.201Z,77.79
2019-02-18T06:28:15.928Z,77.94
2019-02-18T06:30:44.640Z,77.93
2019-02-18T06:33:13.296Z,77.83
2019-02-18T06:35:41.915Z,77.97
2019-02-18T06:38:10.627Z,77.98
2019-02-18T06:40:39.675Z,78.15
2019-02-18T06:43:08.282Z,78.29
2019-02-18T06:45:38.528Z,78.22
2019-02-18T06:48:08.820Z,78.28
2019-02-18T06:50:37.478Z,78.05
2019-02-18T06:53:06.123Z,78.06
2019-02-18T06:55:34.742Z,78.34
2019-02-18T06:58:04.918Z,78.46
2019-02-18T07:00:35.189Z,78.42
2019-02-18T07:03:20.392Z,78.42
2019-02-18T07:05:50.658Z,78.48
2019-02-18T07:08:29.678Z,78.37
2019-02-18T07:11:02.943Z,78.39
2019-02-18T07:13:31.595Z,78.53
2019-02-18T07:16:00.207Z,78.45
2019-02-18T07:18:28.835Z,78.67
2019-02-18T07:20:57.550Z,78.80
2019-02-18T07:23:26.202Z,78.83
2019-02-18T07:25:54.868Z,78.86
2019-02-18T07:28:23.551Z,78.78
2019-02-18T07:30:52.114Z,78.94
2019-02-18T07:33:20.767Z,79.06
2019-02-18T07:35:49.383Z,79.00
2019-02-18T07:38:18.041Z,78.91
2019-02-18T07:40:46.657Z,78.83
2019-02-18T07:43:15.310Z,78.83
2019-02-18T07:45:43.973Z,78.88
2019-02-18T07:48:12.483Z,78.92
2019-02-18T07:50:41.199Z,78.87
2019-02-18T07:53:09.869Z,78.82
2019-02-18T07:55:38.539Z,78.63
2019-02-18T07:58:07.522Z,78.40
2019-02-18T08:00:36.590Z,78.54
2019-02-18T08:03:05.285Z,78.88
2019-02-18T08:05:34.165Z,77.02
2019-02-18T08:08:02.879Z,74.58
2019-02-18T08:10:31.565Z,71.62
2019-02-18T08:13:00.107Z,68.77
2019-02-18T08:15:29.241Z,66.37
2019-02-18T08:17:57.785Z,64.77
2019-02-18T08:20:26.416Z,63.38
2019-02-18T08:22:55.063Z,61.58
2019-02-18T08:25:23.661Z,59.49
2019-02-18T08:27:52.272Z,57.35
2019-02-18T08:30:20.923Z,55.49
2019-02-18T08:32:49.545Z,53.88
2019-02-18T08:35:18.231Z,51.47
2019-02-18T08:37:46.984Z,49.94
2019-02-18T08:40:21.995Z,47.64
2019-02-18T08:42:46.093Z,46.42
2019-02-18T08:45:15.009Z,45.33
2019-02-18T08:47:43.631Z,44.04
2019-02-18T08:50:12.995Z,43.01
2019-02-18T08:52:41.620Z,42.91
2019-02-18T08:55:14.209Z,42.05
2019-02-18T08:57:42.839Z,40.97
2019-02-18T09:00:16.822Z,39.97
2019-02-18T09:02:45.643Z,39.33
2019-02-18T09:05:14.747Z,39.33
2019-02-18T09:07:43.555Z,38.42
2019-02-18T09:10:13.959Z,37.65
2019-02-18T09:12:42.772Z,37.75
2019-02-18T09:15:14.036Z,36.77
2019-02-18T09:17:45.714Z,36.18
2019-02-18T09:20:14.357Z,36.19
2019-02-18T09:22:47.469Z,36.70
2019-02-18T09:25:20.719Z,35.88
2019-02-18T09:27:51.202Z,35.62
2019-02-18T09:30:21.694Z,35.70
2019-02-18T09:32:50.483Z,35.39
2019-02-18T09:35:19.413Z,35.36
2019-02-18T09:37:48.025Z,34.92
2019-02-18T09:40:16.783Z,34.95
2019-02-18T09:42:45.504Z,34.90
2019-02-18T09:45:15.246Z,35.16
2019-02-18T09:47:43.872Z,34.78
2019-02-18T09:50:12.620Z,34.87
2019-02-18T09:52:41.297Z,35.20
2019-02-18T09:55:10.781Z,34.62
2019-02-18T09:57:40.786Z,34.11
2019-02-18T10:00:12.470Z,33.90
2019-02-18T10:02:41.301Z,34.21
2019-02-18T10:05:10.224Z,34.01
2019-02-18T10:07:38.965Z,34.43
2019-02-18T10:10:10.291Z,34.33
2019-02-18T10:12:38.907Z,33.57
2019-02-18T10:15:10.531Z,34.47
2019-02-18T10:17:40.615Z,33.80
2019-02-18T10:20:11.278Z,33.64
2019-02-18T10:22:39.936Z,33.94
2019-02-18T10:25:10.975Z,32.98
2019-02-18T10:27:39.763Z,33.29
2019-02-18T10:30:11.113Z,32.89
2019-02-18T10:32:40.002Z,32.41
2019-02-18T10:35:13.846Z,32.42
2019-02-18T10:37:42.569Z,32.08
2019-02-18T10:40:11.659Z,31.91
2019-02-18T10:42:40.379Z,31.81
2019-02-18T10:45:11.423Z,31.16
2019-02-18T10:47:40.622Z,31.16
2019-02-18T10:50:10.943Z,30.83
2019-02-18T10:52:39.783Z,30.85
2019-02-18T10:55:10.080Z,30.75
2019-02-18T10:57:39.315Z,30.88
2019-02-18T11:00:16.414Z,30.56
2019-02-18T11:02:45.464Z,30.82
2019-02-18T11:05:14.214Z,30.83
2019-02-18T11:07:43.173Z,30.43
2019-02-18T11:10:17.015Z,30.29
2019-02-18T11:12:47.470Z,30.39
2019-02-18T11:15:16.229Z,30.74
2019-02-18T11:17:45.847Z,30.94
2019-02-18T11:20:15.086Z,30.84
2019-02-18T11:22:43.696Z,30.52
2019-02-18T11:25:13.507Z,30.70
2019-02-18T11:27:42.383Z,30.92
2019-02-18T11:30:20.275Z,30.72
2019-02-18T11:32:48.885Z,30.47
2019-02-18T11:35:17.527Z,30.49
2019-02-18T11:37:46.144Z,30.25
2019-02-18T11:40:18.579Z,30.59
2019-02-18T11:42:47.235Z,30.37
2019-02-18T11:45:16.868Z,30.58
2019-02-18T11:47:45.488Z,31.30
2019-02-18T11:50:15.139Z,30.74
2019-02-18T11:52:43.747Z,31.25
2019-02-18T11:55:15.794Z,30.45
2019-02-18T11:57:44.774Z,30.61
2019-02-18T12:00:17.122Z,30.15
2019-02-18T12:02:45.807Z,30.37
2019-02-18T12:05:14.650Z,30.30
2019-02-18T12:07:43.346Z,30.76
2019-02-18T12:10:13.200Z,30.24
2019-02-18T12:12:42.076Z,30.25
2019-02-18T12:15:15.505Z,30.58
2019-02-18T12:17:44.148Z,30.27
2019-02-18T12:20:14.007Z,30.20
2019-02-18T12:22:42.809Z,30.55
2019-02-18T12:25:12.749Z,29.94
2019-02-18T12:27:41.723Z,29.70
2019-02-18T12:30:17.462Z,29.75
2019-02-18T12:32:46.077Z,30.29
2019-02-18T12:35:14.690Z,29.85
2019-02-18T12:37:43.337Z,29.86
2019-02-18T12:40:15.232Z,30.08
2019-02-18T12:42:44.035Z,30.48
2019-02-18T12:45:13.754Z,30.20
2019-02-18T12:47:42.560Z,29.96
2019-02-18T12:50:12.159Z,29.83
2019-02-18T12:52:41.371Z,29.77
2019-02-18T12:55:10.896Z,29.97
2019-02-18T12:57:39.922Z,29.80
2019-02-18T13:00:14.016Z,29.28
2019-02-18T13:02:44.582Z,29.57
2019-02-18T13:05:14.053Z,29.36
2019-02-18T13:07:42.722Z,29.14
2019-02-18T13:10:11.996Z,29.79
2019-02-18T13:12:41.115Z,29.73
2019-02-18T13:15:17.486Z,29.73
2019-02-18T13:17:46.187Z,29.58
2019-02-18T13:20:14.801Z,29.59
2019-02-18T13:22:43.449Z,29.81
2019-02-18T13:25:12.435Z,29.53
2019-02-18T13:27:43.844Z,29.76
2019-02-18T13:30:17.793Z,29.85
2019-02-18T13:32:46.541Z,30.02
2019-02-18T13:35:15.150Z,30.16
2019-02-18T13:37:43.793Z,29.81
2019-02-18T13:40:15.159Z,29.80
2019-02-18T13:42:44.154Z,29.58
2019-02-18T13:45:12.791Z,29.71
2019-02-18T13:47:41.429Z,30.15
2019-02-18T13:50:11.808Z,30.08
2019-02-18T13:52:40.468Z,30.37
2019-02-18T13:55:11.432Z,30.22
2019-02-18T13:57:41.091Z,30.52
2019-02-18T14:00:18.905Z,30.64
2019-02-18T14:02:48.134Z,30.59
2019-02-18T14:05:17.718Z,31.00
2019-02-18T14:07:46.376Z,31.24
2019-02-18T14:10:15.297Z,31.96
2019-02-18T14:12:44.045Z,31.96
2019-02-18T14:15:14.944Z,31.95
2019-02-18T14:17:43.602Z,32.30
2019-02-18T14:20:14.258Z,32.45
2019-02-18T14:22:42.953Z,32.15
2019-02-18T14:25:12.050Z,32.06
2019-02-18T14:27:42.345Z,32.23
2019-02-18T14:30:18.196Z,32.49
2019-02-18T14:32:46.878Z,32.40
2019-02-18T14:35:17.555Z,32.38
2019-02-18T14:37:46.323Z,32.18
2019-02-18T14:40:17.374Z,31.96
2019-02-18T14:42:46.195Z,31.61
2019-02-18T14:45:15.466Z,31.71
2019-02-18T14:47:44.628Z,31.90
2019-02-18T14:50:14.989Z,32.17
2019-02-18T14:52:44.783Z,32.86
2019-02-18T14:55:13.992Z,32.61
2019-02-18T14:57:42.796Z,32.77
2019-02-18T15:00:22.490Z,32.46
2019-02-18T15:02:55.530Z,32.47
2019-02-18T15:05:25.223Z,32.40
2019-02-18T15:07:53.880Z,32.52
2019-02-18T15:10:22.534Z,33.03
2019-02-18T15:12:51.511Z,33.46
2019-02-18T15:15:20.307Z,32.91
2019-02-18T15:17:48.956Z,32.71
2019-02-18T15:20:18.131Z,32.51
2019-02-18T15:22:46.833Z,33.14
2019-02-18T15:25:15.719Z,32.53
2019-02-18T15:27:44.489Z,32.25
2019-02-18T15:30:15.936Z,32.73
2019-02-18T15:32:44.596Z,32.43
2019-02-18T15:35:14.481Z,32.67
2019-02-18T15:37:43.567Z,32.89
2019-02-18T15:40:14.680Z,33.30
2019-02-18T15:42:43.327Z,33.33
2019-02-18T15:45:12.352Z,33.34
2019-02-18T15:47:41.046Z,33.13
2019-02-18T15:50:12.123Z,33.23
2019-02-18T15:52:41.002Z,33.29
2019-02-18T15:55:10.848Z,33.63
2019-02-18T15:57:39.649Z,33.70
2019-02-18T16:00:13.721Z,33.86
2019-02-18T16:02:42.368Z,34.45
2019-02-18T16:05:11.088Z,34.45
2019-02-18T16:07:40.053Z,35.10
2019-02-18T16:10:09.682Z,35.15
2019-02-18T16:12:38.311Z,35.15
2019-02-18T16:15:08.767Z,35.30
2019-02-18T16:17:37.487Z,35.53
2019-02-18T16:20:09.587Z,35.64
2019-02-18T16:22:38.271Z,35.76
2019-02-18T16:25:09.856Z,35.89
2019-02-18T16:27:38.490Z,36.26
2019-02-18T16:30:10.116Z,36.42
2019-02-18T16:32:39.330Z,37.01
2019-02-18T16:35:08.828Z,37.15
2019-02-18T16:37:37.858Z,37.50
2019-02-18T16:40:15.251Z,38.00
2019-02-18T16:42:43.868Z,38.10
2019-02-18T16:45:16.204Z,38.47
2019-02-18T16:47:44.967Z,38.84
2019-02-18T16:50:14.560Z,39.15
2019-02-18T16:52:43.248Z,39.35
2019-02-18T16:55:14.369Z,39.84
2019-02-18T16:57:43.079Z,40.20
2019-02-18T17:00:21.871Z,40.65
2019-02-18T17:02:51.103Z,40.91
2019-02-18T17:05:20.084Z,41.23
2019-02-18T17:07:48.719Z,41.51
2019-02-18T17:10:17.505Z,41.74
2019-02-18T17:12:46.426Z,42.42
2019-02-18T17:15:15.149Z,42.94
2019-02-18T17:17:43.752Z,43.52
2019-02-18T17:20:12.626Z,44.10
2019-02-18T17:22:41.415Z,44.69
2019-02-18T17:25:11.558Z,45.14
2019-02-18T17:27:40.350Z,45.61
2019-02-18T17:30:15.834Z,46.07
2019-02-18T17:32:44.442Z,46.06
2019-02-18T17:35:14.087Z,45.43
2019-02-18T17:37:42.747Z,44.88
2019-02-18T17:40:14.962Z,44.36
2019-02-18T17:42:44.064Z,43.84
2019-02-18T17:45:17.336Z,43.46
2019-02-18T17:47:46.050Z,43.26
2019-02-18T17:50:16.422Z,43.25
2019-02-18T17:52:45.465Z,42.99
2019-02-18T17:55:18.601Z,42.96
2019-02-18T17:57:47.397Z,42.65
2019-02-18T18:00:21.458Z,42.49
2019-02-18T18:02:50.162Z,42.42
2019-02-18T18:05:18.949Z,42.40
2019-02-18T18:07:47.616Z,42.73
2019-02-18T18:10:16.711Z,42.43
2019-02-18T18:12:45.706Z,42.54
2019-02-18T18:15:16.882Z,42.53
2019-02-18T18:17:45.809Z,42.79
2019-02-18T18:20:14.950Z,42.90
2019-02-18T18:22:43.858Z,42.93
2019-02-18T18:25:14.232Z,43.05
2019-02-18T18:27:42.831Z,43.30
2019-02-18T18:30:13.907Z,43.47
2019-02-18T18:32:42.567Z,43.62
2019-02-18T18:35:12.482Z,43.93
2019-02-18T18:37:41.366Z,44.25
2019-02-18T18:40:12.859Z,44.66
2019-02-18T18:42:41.854Z,45.21
2019-02-18T18:45:12.689Z,45.42
2019-02-18T18:47:41.448Z,45.72
2019-02-18T18:50:15.487Z,45.78
2019-02-18T18:52:44.644Z,45.88
2019-02-18T18:55:13.296Z,46.08
2019-02-18T18:57:41.909Z,46.12
2019-02-18T19:00:21.125Z,46.32
2019-02-18T19:02:50.210Z,46.60
2019-02-18T19:05:19.551Z,46.67
2019-02-18T19:07:48.163Z,46.90
2019-02-18T19:10:17.013Z,47.08
2019-02-18T19:12:45.915Z,47.36
2019-02-18T19:15:15.907Z,47.43
2019-02-18T19:17:44.710Z,47.60
2019-02-18T19:20:14.237Z,47.76
2019-02-18T19:22:43.158Z,48.17
2019-02-18T19:25:12.820Z,48.22
2019-02-18T19:27:41.964Z,48.63
2019-02-18T19:30:28.853Z,48.63
2019-02-18T19:32:57.733Z,49.05
2019-02-18T19:35:26.830Z,49.43
2019-02-18T19:37:55.964Z,49.69
2019-02-18T19:40:25.031Z,49.92
2019-02-18T19:42:54.166Z,50.25
2019-02-18T19:45:24.435Z,50.35
2019-02-18T19:47:53.683Z,50.48
2019-02-18T19:50:23.767Z,50.83
2019-02-18T19:52:52.756Z,51.07
2019-02-18T19:55:21.741Z,51.27
2019-02-18T19:57:50.744Z,51.39
2019-02-18T20:00:21.196Z,51.76
2019-02-18T20:02:50.266Z,51.83
2019-02-18T20:05:20.305Z,52.21
2019-02-18T20:07:49.403Z,52.27
2019-02-18T20:10:18.987Z,52.66
2019-02-18T20:12:48.098Z,52.74
2019-02-18T20:15:17.477Z,53.05
2019-02-18T20:17:46.567Z,53.16
2019-02-18T20:20:17.144Z,53.36
2019-02-18T20:22:46.199Z,53.56
2019-02-18T20:25:15.491Z,53.75
2019-02-18T20:27:45.007Z,53.92
2019-02-18T20:30:15.887Z,54.17
2019-02-18T20:32:46.169Z,54.19
2019-02-18T20:35:15.255Z,54.23
2019-02-18T20:37:44.678Z,54.53
2019-02-18T20:40:13.758Z,54.77
2019-02-18T20:42:44.354Z,54.91
2019-02-18T20:45:14.352Z,55.16
2019-02-18T20:47:43.495Z,55.33
2019-02-18T20:50:13.933Z,55.66
2019-02-18T20:52:43.320Z,56.09
2019-02-18T20:55:14.170Z,56.62
2019-02-18T20:57:43.148Z,56.75
2019-02-18T21:00:18.739Z,57.08
2019-02-18T21:02:48.210Z,57.47
2019-02-18T21:05:17.296Z,57.72
2019-02-18T21:07:46.290Z,57.90
2019-02-18T21:10:18.098Z,57.98
2019-02-18T21:12:47.266Z,58.19
2019-02-18T21:15:16.649Z,58.47
2019-02-18T21:17:45.622Z,58.47
2019-02-18T21:20:15.321Z,58.24
2019-02-18T21:22:44.560Z,58.32
2019-02-18T21:25:13.705Z,58.45
2019-02-18T21:27:42.405Z,58.45
2019-02-18T21:30:13.334Z,58.62
2019-02-18T21:32:41.969Z,58.69
2019-02-18T21:35:10.832Z,58.52
2019-02-18T21:37:39.446Z,58.61
2019-02-18T21:40:10.383Z,58.57
2019-02-18T21:42:39.157Z,58.47
2019-02-18T21:45:15.543Z,58.50
2019-02-18T21:47:44.262Z,58.44
2019-02-18T21:50:13.330Z,58.66
2019-02-18T21:52:42.223Z,58.60
2019-02-18T21:55:12.058Z,58.60
2019-02-18T21:57:40.703Z,58.59
2019-02-18T22:00:19.039Z,58.57
2019-02-18T22:02:48.149Z,58.52
2019-02-18T22:05:17.068Z,58.48
2019-02-18T22:07:45.682Z,58.39
2019-02-18T22:10:14.718Z,58.38
2019-02-18T22:12:43.444Z,58.33
2019-02-18T22:15:14.448Z,58.32
2019-02-18T22:17:43.796Z,58.40
2019-02-18T22:20:14.275Z,58.41
2019-02-18T22:22:42.996Z,58.43
2019-02-18T22:25:12.703Z,58.39
2019-02-18T22:27:41.354Z,58.45
2019-02-18T22:30:14.749Z,58.54
2019-02-18T22:32:43.363Z,58.54
2019-02-18T22:35:12.195Z,58.51
2019-02-18T22:37:40.865Z,58.61
2019-02-18T22:40:11.646Z,58.56
2019-02-18T22:42:40.282Z,58.50
2019-02-18T22:45:11.102Z,58.60
2019-02-18T22:47:39.850Z,58.68
2019-02-18T22:50:11.131Z,58.70
2019-02-18T22:52:41.344Z,58.70
2019-02-18T22:55:10.962Z,58.81
2019-02-18T22:57:41.018Z,58.82
2019-02-18T23:00:23.245Z,58.94
2019-02-18T23:02:51.860Z,59.00
2019-02-18T23:05:20.473Z,58.98
2019-02-18T23:07:49.203Z,59.12
2019-02-18T23:10:18.056Z,59.22
2019-02-18T23:12:46.753Z,59.27
2019-02-18T23:15:15.429Z,59.40
2019-02-18T23:17:44.232Z,59.55
2019-02-18T23:20:13.514Z,59.51
2019-02-18T23:22:42.097Z,59.65
2019-02-18T23:25:10.887Z,59.74
2019-02-18T23:27:39.540Z,59.89
2019-02-18T23:30:08.858Z,59.96
2019-02-18T23:32:37.495Z,60.04
2019-02-18T23:35:06.109Z,59.99
2019-02-18T23:37:35.338Z,60.13
2019-02-18T23:40:04.753Z,60.15
2019-02-18T23:42:33.354Z,60.21
2019-02-18T23:45:02.002Z,60.31
2019-02-18T23:47:30.628Z,60.47
2019-02-18T23:49:59.239Z,60.43
2019-02-18T23:52:27.965Z,60.49
2019-02-18T23:54:56.571Z,60.51
2019-02-18T23:57:25.176Z,60.79
2019-02-18T23:59:53.817Z,60.72
